createdAt,value
2019-05-02T00:01:27.592Z,11.22
2019-05-02T00:04:30.874Z,11.70
2019-05-02T00:07:34.345Z,13.10
2019-05-02T00:10:37.733Z,13.18
2019-05-02T00:13:41.233Z,12.60
2019-05-02T00:16:45.090Z,13.70
2019-05-02T00:19:51.122Z,12.88
2019-05-02T00:22:55.537Z,11.70
2019-05-02T00:25:58.854Z,13.10
2019-05-02T00:29:02.161Z,11.97
2019-05-02T00:32:05.572Z,11.40
2019-05-02T00:35:08.867Z,11.75
2019-05-02T00:38:12.137Z,11.90
2019-05-02T00:41:15.440Z,11.95
2019-05-02T00:44:20.285Z,12.37
2019-05-02T00:47:42.326Z,12.05
2019-05-02T00:50:45.275Z,10.93
2019-05-02T00:53:49.553Z,10.98
2019-05-02T00:56:52.821Z,11.22
2019-05-02T00:59:56.156Z,11.53
2019-05-02T01:03:01.042Z,12.20
2019-05-02T01:06:04.344Z,10.48
2019-05-02T01:09:11.018Z,9.95
2019-05-02T01:12:25.168Z,11.35
2019-05-02T01:15:18.041Z,11.43
2019-05-02T01:18:23.416Z,11.25
2019-05-02T01:21:26.565Z,9.60
2019-05-02T01:24:34.110Z,11.25
2019-05-02T01:27:57.089Z,11.75
2019-05-02T01:31:18.259Z,10.65
2019-05-02T01:34:43.053Z,10.95
2019-05-02T01:38:14.356Z,10.43
2019-05-02T01:41:17.726Z,11.28
2019-05-02T01:44:20.905Z,10.95
2019-05-02T01:47:24.268Z,10.65
2019-05-02T01:50:28.918Z,11.03
2019-05-02T01:53:34.649Z,10.80
2019-05-02T01:56:38.701Z,10.23
2019-05-02T01:59:42.948Z,10.85
2019-05-02T02:02:45.883Z,10.80
2019-05-02T02:05:49.221Z,10.65
2019-05-02T02:08:52.474Z,9.85
2019-05-02T02:11:55.665Z,10.40
2019-05-02T02:14:58.917Z,10.53
2019-05-02T02:18:02.363Z,11.70
2019-05-02T02:21:15.240Z,12.43
2019-05-02T02:24:26.852Z,12.40
2019-05-02T02:27:30.107Z,13.40
2019-05-02T02:30:33.429Z,13.55
2019-05-02T02:33:40.863Z,13.53
2019-05-02T02:36:42.761Z,13.87
2019-05-02T02:39:48.525Z,14.50
2019-05-02T02:42:50.870Z,14.13
2019-05-02T02:46:38.063Z,13.22
2019-05-02T02:49:36.537Z,12.93
2019-05-02T02:52:44.464Z,13.72
2019-05-02T02:55:44.754Z,14.25
2019-05-02T02:58:48.246Z,15.10
2019-05-02T03:01:51.305Z,14.98
2019-05-02T03:04:54.611Z,15.55
2019-05-02T03:07:59.421Z,16.50
2019-05-02T03:11:03.041Z,15.90
2019-05-02T03:14:12.286Z,15.32
2019-05-02T03:17:20.514Z,12.82
2019-05-02T03:20:20.808Z,14.68
2019-05-02T03:23:24.199Z,14.55
2019-05-02T03:26:27.816Z,14.93
2019-05-02T03:29:41.290Z,14.35
2019-05-02T03:32:36.629Z,13.53
2019-05-02T03:35:44.165Z,13.53
2019-05-02T03:38:45.029Z,12.18
2019-05-02T03:41:48.096Z,12.23
2019-05-02T03:44:56.210Z,11.70
2019-05-02T03:47:56.438Z,12.73
2019-05-02T03:50:59.605Z,12.50
2019-05-02T03:54:07.264Z,11.53
2019-05-02T03:57:07.761Z,11.80
2019-05-02T04:00:13.828Z,12.28
2019-05-02T04:03:17.915Z,11.48
2019-05-02T04:06:23.601Z,11.68
2019-05-02T04:09:37.942Z,11.85
2019-05-02T04:12:37.057Z,11.35
2019-05-02T06:52:13.666Z,5.05
2019-05-02T07:51:09.915Z,6.50
2019-05-02T07:59:23.308Z,7.53
2019-05-02T08:02:25.001Z,7.97
2019-05-02T08:05:29.585Z,7.35
2019-05-02T08:08:36.265Z,7.42
2019-05-02T08:11:40.161Z,6.87
2019-05-02T08:14:44.144Z,6.40
2019-05-02T08:17:53.166Z,8.63
2019-05-02T08:20:56.021Z,8.20
2019-05-02T08:24:02.216Z,8.55
2019-05-02T08:27:38.582Z,9.05
2019-05-02T08:30:44.456Z,9.18
2019-05-02T08:33:47.656Z,9.43
2019-05-02T08:36:50.796Z,8.65
2019-05-02T08:39:53.876Z,8.43
2019-05-02T08:42:57.137Z,9.03
2019-05-02T08:46:00.476Z,9.00
2019-05-02T08:49:03.941Z,9.50
2019-05-02T08:52:07.377Z,9.00
2019-05-02T08:55:11.088Z,8.80
2019-05-02T08:58:15.867Z,9.15
2019-05-02T09:01:19.342Z,8.55
2019-05-02T09:04:24.091Z,8.63
2019-05-02T09:07:31.702Z,9.23
2019-05-02T09:10:32.586Z,9.70
2019-05-02T09:13:37.321Z,10.58
2019-05-02T09:16:42.632Z,10.28
2019-05-02T09:19:59.150Z,10.58
2019-05-02T09:22:52.215Z,9.23
2019-05-02T09:25:55.318Z,10.55
2019-05-02T09:29:01.666Z,9.18
2019-05-02T09:32:04.482Z,8.80
2019-05-02T09:35:08.961Z,9.63
2019-05-02T09:38:12.923Z,9.33
2019-05-02T09:41:19.431Z,12.73
2019-05-02T09:44:22.354Z,10.65
2019-05-02T09:47:27.334Z,9.28
2019-05-02T09:50:32.150Z,11.60
2019-05-02T09:53:36.030Z,12.30
2019-05-02T09:56:39.254Z,10.72
2019-05-02T09:59:50.428Z,11.68
2019-05-02T10:02:47.557Z,10.80
2019-05-02T10:05:52.343Z,10.70
2019-05-02T10:08:55.799Z,10.88
2019-05-02T10:11:58.927Z,12.98
2019-05-02T10:15:04.042Z,13.25
2019-05-02T10:18:11.217Z,10.82
2019-05-02T10:21:16.936Z,12.82
2019-05-02T10:24:17.697Z,11.35
2019-05-02T10:27:21.668Z,12.28
2019-05-02T10:30:26.917Z,13.00
2019-05-02T10:33:33.639Z,12.33
2019-05-02T10:36:35.312Z,12.53
2019-05-02T10:39:39.529Z,12.50
2019-05-02T10:42:42.606Z,13.45
2019-05-02T10:45:54.865Z,10.15
2019-05-02T10:49:01.862Z,11.53
2019-05-02T10:52:58.329Z,13.05
2019-05-02T10:56:02.693Z,12.78
2019-05-02T10:59:05.967Z,14.35
2019-05-02T11:02:25.632Z,12.63
2019-05-02T11:05:31.257Z,13.15
2019-05-02T11:08:36.740Z,14.07
2019-05-02T11:11:42.364Z,13.45
2019-05-02T11:14:53.751Z,12.40
2019-05-02T11:17:57.080Z,12.85
2019-05-02T11:21:06.836Z,10.10
2019-05-02T11:24:05.219Z,12.00
2019-05-02T11:27:08.473Z,13.95
2019-05-02T11:30:16.768Z,13.80
2019-05-02T11:33:17.770Z,12.80
2019-05-02T11:36:22.285Z,13.22
2019-05-02T11:39:33.528Z,14.73
2019-05-02T11:42:32.334Z,14.35
2019-05-02T11:45:35.665Z,13.78
2019-05-02T11:48:38.777Z,12.47
2019-05-02T11:51:42.271Z,13.45
2019-05-02T11:54:48.441Z,13.45
2019-05-02T11:57:52.236Z,10.58
2019-05-02T12:00:55.125Z,11.95
2019-05-02T12:03:58.317Z,13.75
2019-05-02T12:07:04.958Z,13.10
2019-05-02T12:10:07.273Z,11.83
2019-05-02T12:13:11.930Z,10.70
2019-05-02T12:16:16.196Z,11.88
2019-05-02T12:19:19.349Z,12.23
2019-05-02T12:22:22.664Z,10.75
2019-05-02T12:25:26.045Z,11.40
2019-05-02T12:28:29.558Z,12.65
2019-05-02T12:31:33.118Z,11.93
2019-05-02T12:34:36.453Z,12.20
2019-05-02T12:37:39.372Z,11.30
2019-05-02T12:40:42.526Z,10.58
2019-05-02T12:43:45.814Z,11.65
2019-05-02T12:46:48.985Z,12.80
2019-05-02T12:49:52.425Z,10.43
2019-05-02T12:52:55.821Z,12.07
2019-05-02T12:55:58.995Z,12.82
2019-05-02T12:59:02.584Z,11.60
2019-05-02T13:02:08.920Z,11.38
2019-05-02T13:05:13.177Z,10.95
2019-05-02T13:08:16.598Z,12.55
2019-05-02T13:11:44.497Z,11.83
2019-05-02T13:14:46.553Z,13.78
2019-05-02T13:17:52.009Z,12.60
2019-05-02T13:20:56.166Z,14.25
2019-05-02T13:24:16.722Z,12.53
2019-05-02T13:27:20.081Z,14.23
2019-05-02T13:30:42.856Z,13.98
2019-05-02T13:33:45.236Z,12.28
2019-05-02T13:36:49.026Z,13.60
2019-05-02T13:40:12.063Z,12.65
2019-05-02T13:43:16.814Z,13.85
2019-05-02T13:46:22.274Z,11.93
2019-05-02T13:49:25.533Z,12.43
2019-05-02T13:52:29.071Z,12.05
2019-05-02T13:55:37.346Z,12.10
2019-05-02T13:58:42.371Z,10.98
2019-05-02T14:01:47.725Z,11.60
2019-05-02T14:04:52.141Z,10.00
2019-05-02T14:08:12.986Z,9.63
2019-05-02T14:11:34.402Z,10.08
2019-05-02T14:14:37.762Z,10.88
2019-05-02T14:17:42.318Z,10.90
2019-05-02T14:20:46.686Z,10.45
2019-05-02T14:23:51.790Z,10.72
2019-05-02T14:26:55.521Z,10.35
2019-05-02T14:29:58.818Z,8.65
2019-05-02T14:33:05.953Z,8.85
2019-05-02T14:36:09.205Z,9.65
2019-05-02T14:39:12.546Z,10.93
2019-05-02T14:42:24.390Z,11.43
2019-05-02T14:45:30.794Z,10.00
2019-05-02T14:48:28.986Z,12.70
2019-05-02T14:51:36.468Z,11.53
2019-05-02T14:54:43.877Z,12.00
2019-05-02T14:57:43.644Z,12.47
2019-05-02T15:00:48.860Z,12.53
2019-05-02T15:03:52.919Z,11.80
2019-05-02T15:06:56.229Z,13.35
2019-05-02T15:10:02.681Z,13.13
2019-05-02T15:13:06.996Z,12.93
2019-05-02T15:16:17.439Z,13.58
2019-05-02T15:19:15.255Z,13.30
2019-05-02T15:22:18.665Z,13.15
2019-05-02T15:25:22.035Z,14.95
2019-05-02T15:28:25.346Z,13.03
2019-05-02T15:31:33.743Z,14.93
2019-05-02T15:34:54.391Z,15.50
2019-05-02T15:38:02.649Z,13.80
2019-05-02T15:41:05.060Z,13.45
2019-05-02T15:44:08.033Z,14.85
2019-05-02T15:47:12.441Z,14.83
2019-05-02T15:50:23.832Z,15.13
2019-05-02T15:53:26.173Z,16.35
2019-05-02T15:56:29.549Z,14.93
2019-05-02T15:59:42.311Z,15.50
2019-05-02T16:02:42.679Z,16.42
2019-05-02T16:05:46.099Z,14.83
2019-05-02T16:08:49.258Z,16.17
2019-05-02T16:11:55.747Z,14.87
2019-05-02T16:14:57.662Z,15.15
2019-05-02T16:18:03.990Z,15.13
2019-05-02T16:21:11.925Z,12.70
2019-05-02T16:24:22.887Z,13.10
2019-05-02T16:28:02.667Z,14.25
2019-05-02T16:31:05.483Z,15.75
2019-05-02T16:34:08.594Z,14.23
2019-05-02T16:37:16.639Z,15.30
2019-05-02T16:40:22.088Z,16.73
2019-05-02T16:43:24.798Z,15.83
2019-05-02T16:46:28.372Z,16.12
2019-05-02T16:49:32.192Z,16.07
2019-05-02T16:52:38.051Z,15.43
2019-05-02T16:55:43.451Z,17.40
2019-05-02T16:58:47.261Z,15.98
2019-05-02T17:01:54.172Z,16.93
2019-05-02T17:05:00.129Z,16.40
2019-05-02T17:08:20.187Z,16.42
2019-05-02T17:11:34.514Z,16.93
2019-05-02T17:14:33.130Z,15.70
2019-05-02T17:17:36.386Z,17.77
2019-05-02T17:20:39.421Z,17.12
2019-05-02T17:23:46.470Z,18.37
2019-05-02T17:26:48.067Z,19.42
2019-05-02T17:29:54.275Z,21.33
2019-05-02T17:32:56.403Z,21.00
2019-05-02T17:35:59.686Z,22.50
2019-05-02T17:39:08.083Z,23.35
2019-05-02T17:42:12.473Z,27.20
2019-05-02T17:45:16.252Z,28.02
2019-05-02T17:48:23.943Z,27.30
2019-05-02T17:51:49.331Z,28.92
2019-05-02T17:54:57.244Z,25.65
2019-05-02T17:57:58.122Z,30.15
2019-05-02T18:01:02.984Z,30.12
2019-05-02T18:04:12.510Z,31.20
2019-05-02T18:07:11.702Z,29.55
2019-05-02T18:10:21.965Z,30.52
2019-05-02T18:13:20.018Z,29.63
2019-05-02T18:16:23.111Z,34.08
2019-05-02T18:19:26.217Z,33.05
2019-05-02T18:22:29.407Z,33.83
2019-05-02T18:25:32.515Z,29.95
2019-05-02T18:28:46.188Z,25.55
2019-05-02T18:31:47.128Z,29.12
2019-05-02T18:34:45.595Z,27.10
2019-05-02T18:37:48.810Z,28.45
2019-05-02T18:40:53.005Z,28.40
2019-05-02T18:43:57.028Z,27.58
2019-05-02T18:47:02.301Z,28.92
2019-05-02T18:50:15.163Z,28.47
2019-05-02T18:53:22.921Z,28.20
2019-05-02T18:56:23.557Z,30.08
2019-05-02T18:59:27.751Z,30.27
2019-05-02T19:06:03.202Z,30.70
2019-05-02T19:09:09.585Z,31.02
2019-05-02T19:12:21.513Z,31.05
2019-05-02T19:15:39.650Z,33.48
2019-05-02T19:18:42.496Z,31.37
2019-05-02T19:21:45.601Z,34.90
2019-05-02T19:24:48.576Z,29.92
2019-05-02T19:27:59.338Z,27.65
2019-05-02T19:31:06.888Z,27.27
2019-05-02T19:34:11.990Z,28.87
2019-05-02T19:37:16.413Z,27.17
2019-05-02T19:40:26.958Z,26.77
2019-05-02T19:43:28.587Z,22.77
2019-05-02T19:46:38.610Z,22.95
2019-05-02T19:49:37.198Z,23.65
2019-05-02T19:52:42.918Z,23.38
2019-05-02T19:55:46.241Z,25.37
2019-05-02T19:58:49.778Z,24.25
2019-05-02T20:01:56.867Z,17.90
2019-05-02T20:04:58.994Z,17.40
2019-05-02T20:08:02.594Z,18.05
2019-05-02T20:11:06.013Z,15.63
2019-05-02T20:14:09.776Z,15.20
2019-05-02T20:17:14.919Z,13.50
2019-05-02T20:20:48.631Z,12.78
2019-05-02T20:23:52.228Z,14.65
2019-05-02T20:26:56.184Z,14.23
2019-05-02T20:29:59.382Z,14.15
2019-05-02T20:33:05.042Z,15.10
2019-05-02T20:36:07.005Z,13.85
2019-05-02T20:39:11.773Z,14.30
2019-05-02T20:42:14.669Z,15.35
2019-05-02T20:45:17.609Z,13.95
2019-05-02T20:48:22.642Z,14.75
2019-05-02T20:51:25.283Z,13.45
2019-05-02T20:54:28.213Z,13.78
2019-05-02T20:57:31.833Z,12.90
2019-05-02T21:00:35.494Z,12.98
2019-05-02T21:03:38.377Z,10.95
2019-05-02T21:07:06.665Z,11.03
2019-05-02T21:10:22.643Z,10.93
2019-05-02T21:13:25.474Z,8.00
2019-05-02T21:16:28.442Z,7.28
2019-05-02T21:19:50.882Z,5.85
2019-05-02T21:22:53.678Z,4.67
2019-05-02T21:25:56.481Z,4.33
2019-05-02T21:28:59.331Z,3.50
2019-05-02T21:32:02.218Z,2.90
2019-05-02T21:35:05.422Z,2.40
2019-05-02T21:38:08.293Z,2.50
2019-05-02T21:41:13.014Z,2.92
2019-05-02T21:44:16.790Z,2.70
2019-05-02T21:47:22.311Z,2.10
2019-05-02T21:50:45.233Z,2.20
2019-05-02T21:54:02.958Z,2.20
2019-05-02T21:57:15.053Z,1.75
2019-05-02T22:00:42.054Z,2.08
2019-05-02T22:03:45.278Z,1.90
2019-05-02T22:06:48.611Z,2.05
2019-05-02T22:09:52.391Z,2.52
2019-05-02T22:12:55.513Z,2.00
2019-05-02T22:15:58.349Z,2.40
2019-05-02T22:19:02.892Z,2.15
2019-05-02T22:22:06.118Z,2.08
2019-05-02T22:25:11.505Z,2.27
2019-05-02T22:28:14.635Z,2.30
2019-05-02T22:31:17.869Z,2.72
2019-05-02T22:34:22.039Z,2.08
2019-05-02T22:37:25.837Z,1.90
2019-05-02T22:40:29.081Z,2.30
2019-05-02T22:43:32.751Z,2.70
2019-05-02T22:46:43.629Z,2.70
2019-05-02T22:49:46.930Z,2.20
2019-05-02T22:52:52.090Z,2.87
2019-05-02T22:55:55.101Z,2.35
2019-05-02T22:58:58.248Z,2.20
2019-05-02T23:02:02.148Z,2.30
2019-05-02T23:05:05.882Z,2.17
2019-05-02T23:08:08.974Z,2.62
2019-05-02T23:11:12.968Z,2.50
2019-05-02T23:14:16.280Z,2.30
2019-05-02T23:17:19.366Z,2.62
2019-05-02T23:20:24.431Z,2.58
2019-05-02T23:23:27.507Z,2.60
2019-05-02T23:26:58.734Z,2.47
2019-05-02T23:30:02.956Z,2.80
2019-05-02T23:33:06.273Z,2.80
2019-05-02T23:36:09.165Z,2.50
2019-05-02T23:39:12.440Z,2.30
2019-05-02T23:42:15.957Z,2.37
2019-05-02T23:45:19.056Z,2.20
2019-05-02T23:48:22.143Z,2.17
2019-05-02T23:51:25.110Z,2.40
2019-05-02T23:54:28.000Z,2.40
2019-05-02T23:57:32.454Z,2.33
